Time;durP1;ratioP1;P1;durP2;ratioP2;P2;SDS_P1;SDS_P2;PMS_P1;PMS_P2;Temp;Humidity;BMP_temperature;BMP_pressure;BME280_temperature;BME280_humidity;BME280_pressure;Samples;Min_cycle;Max_cycle;Signal;HPM_P1;HPM_P2
2021/09/30 21:30:57;;;;;;;20.95;8.95;;;;;;;10.74;58.00;101569.59;3439181;27;2737757;-75
2021/09/30 21:32:39;;;;;;;19.70;8.38;;;;;;;10.71;58.92;101561.88;3503949;28;20036;-73
2021/09/30 21:34:20;;;;;;;16.83;11.18;;;;;;;10.83;59.48;101567.84;3502287;28;20059;-74
2021/09/30 21:36:01;;;;;;;22.43;9.90;;;;;;;10.86;59.87;101568.38;3516654;28;20075;-72
2021/09/30 21:37:42;;;;;;;17.70;9.40;;;;;;;10.98;60.17;101569.00;3518094;28;20285;-73
2021/09/30 21:39:23;;;;;;;22.43;9.33;;;;;;;11.04;60.02;101572.91;3520815;28;20043;-74
2021/09/30 21:41:05;;;;;;;16.73;9.70;;;;;;;11.11;59.80;101576.66;3524060;28;20288;-73
2021/09/30 21:42:47;;;;;;;13.23;8.23;;;;;;;11.13;60.02;101577.34;3477164;28;20129;-73
2021/09/30 21:44:29;;;;;;;15.02;10.38;;;;;;;11.16;59.69;101578.88;3513358;28;20088;-73
2021/09/30 21:46:10;;;;;;;17.05;9.40;;;;;;;11.20;59.42;101581.06;3520727;28;20043;-73
2021/09/30 21:47:51;;;;;;;16.23;8.65;;;;;;;11.23;59.28;101575.44;3506409;28;20095;-73
2021/09/30 21:49:32;;;;;;;15.00;8.30;;;;;;;11.27;59.25;101576.78;3516993;28;20054;-73
2021/09/30 21:51:13;;;;;;;14.57;8.65;;;;;;;11.28;58.95;101573.16;3521071;28;20131;-73
2021/09/30 21:52:54;;;;;;;11.95;8.27;;;;;;;11.30;58.79;101576.47;3505492;28;20040;-72
2021/09/30 21:54:35;;;;;;;13.43;9.13;;;;;;;11.31;58.72;101578.19;3518114;28;20074;-72
2021/09/30 21:56:16;;;;;;;17.60;9.80;;;;;;;11.31;58.57;101583.53;3505759;28;20091;-73
2021/09/30 21:57:59;;;;;;;14.63;9.15;;;;;;;11.32;58.49;101584.34;3516734;28;20067;-72
2021/09/30 21:59:41;;;;;;;13.48;9.20;;;;;;;11.31;58.44;101580.84;3519691;28;20530;-72
2021/09/30 22:01:22;;;;;;;15.52;8.82;;;;;;;11.33;58.29;101581.53;3521274;28;20131;-72
2021/09/30 22:03:02;;;;;;;14.48;8.80;;;;;;;11.34;58.38;101583.19;3521691;28;20067;-72
2021/09/30 22:04:45;;;;;;;13.30;8.57;;;;;;;11.34;58.24;101580.53;3521259;28;20047;-73
2021/09/30 22:06:25;;;;;;;14.90;9.25;;;;;;;11.39;58.30;101584.59;3522111;28;20434;-72
2021/09/30 22:08:06;;;;;;;18.15;9.45;;;;;;;11.43;58.28;101588.63;3521819;28;20039;-72
2021/09/30 22:09:49;;;;;;;12.75;8.80;;;;;;;11.49;58.02;101588.84;3521428;28;20040;-73
2021/09/30 22:11:30;;;;;;;14.27;8.27;;;;;;;11.50;57.73;101582.50;3522100;28;20542;-73
2021/09/30 22:13:11;;;;;;;15.45;9.23;;;;;;;11.53;57.77;101586.69;3522088;28;20035;-72
2021/09/30 22:14:52;;;;;;;12.98;8.10;;;;;;;11.55;57.65;101592.72;3521779;28;20048;-73
2021/09/30 22:16:33;;;;;;;17.02;9.35;;;;;;;11.59;57.42;101591.44;3521466;28;20050;-72
2021/09/30 22:18:14;;;;;;;14.85;8.25;;;;;;;11.62;57.32;101596.47;3522027;28;20426;-71
2021/09/30 22:19:55;;;;;;;13.77;8.60;;;;;;;11.62;57.16;101599.16;3520346;28;20046;-73
2021/09/30 22:21:36;;;;;;;15.50;9.60;;;;;;;11.61;57.03;101594.78;3521450;28;20459;-73
2021/09/30 22:23:16;;;;;;;13.55;8.82;;;;;;;11.65;57.22;101589.97;3506256;28;20569;-72
2021/09/30 22:24:57;;;;;;;20.13;10.68;;;;;;;11.66;57.00;101597.81;3518688;28;20048;-72
2021/09/30 22:26:38;;;;;;;13.88;9.18;;;;;;;11.67;57.00;101594.19;3521962;28;20434;-73
2021/09/30 22:28:19;;;;;;;12.43;9.03;;;;;;;11.65;56.86;101590.81;3521068;28;20043;-73
2021/09/30 22:30:00;;;;;;;14.13;8.50;;;;;;;11.63;56.79;101598.13;3521135;28;20348;-73
2021/09/30 22:31:41;;;;;;;15.13;8.98;;;;;;;11.61;56.80;101597.44;3515577;28;20044;-74
2021/09/30 22:33:23;;;;;;;11.35;8.20;;;;;;;11.58;57.00;101595.09;3521539;28;20074;-72
2021/09/30 22:35:11;;;;;;;16.73;9.50;;;;;;;11.59;56.95;101599.47;3521326;28;20050;-73
2021/09/30 22:36:53;;;;;;;16.85;9.50;;;;;;;11.64;56.98;101601.63;3506364;28;20051;-73
2021/09/30 22:38:34;;;;;;;;;;;;;;;11.73;56.79;101596.22;3519510;28;20048;-73
2021/09/30 22:40:15;;;;;;;10.98;7.75;;;;;;;11.67;56.61;101604.88;3491656;28;20347;-73
2021/09/30 22:41:56;;;;;;;10.52;7.63;;;;;;;11.64;56.93;101594.50;3508700;28;20044;-73
2021/09/30 22:43:37;;;;;;;12.77;9.18;;;;;;;11.66;56.92;101597.81;3511070;28;20048;-72
2021/09/30 22:45:18;;;;;;;11.32;8.77;;;;;;;11.70;56.92;101601.03;3511306;28;20425;-72
2021/09/30 22:46:58;;;;;;;16.90;9.60;;;;;;;11.75;56.86;101601.41;3510874;28;20036;-73
2021/09/30 22:48:39;;;;;;;13.02;8.45;;;;;;;11.75;56.71;101599.59;3512274;28;20135;-72
2021/09/30 22:50:20;;;;;;;22.98;8.73;;;;;;;11.70;56.41;101609.88;3525343;28;20448;-72
2021/09/30 22:52:01;;;;;;;15.23;9.38;;;;;;;11.68;56.50;101603.84;3525591;28;20042;-72
2021/09/30 22:53:42;;;;;;;16.38;9.23;;;;;;;11.68;56.41;101601.19;3516322;28;20422;-72
2021/09/30 22:55:24;;;;;;;15.57;8.90;;;;;;;11.65;56.43;101609.50;3495971;28;20040;-73
2021/09/30 22:57:04;;;;;;;11.50;9.15;;;;;;;11.62;56.45;101601.81;3506609;28;20030;-73
2021/09/30 22:58:45;;;;;;;19.67;9.65;;;;;;;11.64;56.44;101605.19;3501644;28;20082;-71
2021/09/30 23:00:26;;;;;;;14.85;9.02;;;;;;;11.58;56.36;101595.09;3495169;28;20450;-72
2021/09/30 23:02:07;;;;;;;14.57;9.02;;;;;;;11.60;56.28;101601.13;3504420;28;20046;-72
2021/09/30 23:03:48;;;;;;;13.10;7.63;;;;;;;11.57;56.53;101601.44;3510147;28;20063;-72
2021/09/30 23:05:29;;;;;;;14.93;8.77;;;;;;;11.56;56.48;101607.75;3510126;28;20506;-74
2021/09/30 23:07:09;;;;;;;14.52;8.73;;;;;;;11.56;56.68;101607.75;3506744;28;20054;-72
2021/09/30 23:08:51;;;;;;;12.77;8.70;;;;;;;11.57;56.40;101607.63;3510756;28;20524;-72
2021/09/30 23:10:35;;;;;;;12.25;8.52;;;;;;;11.57;56.42;101598.75;3510520;28;20044;-74
2021/09/30 23:12:16;;;;;;;10.88;8.55;;;;;;;11.57;56.28;101602.28;3486319;28;20079;-73
2021/09/30 23:13:57;;;;;;;20.30;9.50;;;;;;;11.54;56.29;101599.09;3498495;28;20036;-72
2021/09/30 23:15:38;;;;;;;13.90;8.30;;;;;;;11.52;56.63;101601.06;3510154;28;20517;-73
2021/09/30 23:17:19;;;;;;;16.10;8.75;;;;;;;11.52;56.69;101611.75;3520851;28;20043;-74
2021/09/30 23:19:00;;;;;;;12.73;8.02;;;;;;;11.51;56.72;101610.03;3510943;28;20044;-73
2021/09/30 23:20:42;;;;;;;12.48;8.43;;;;;;;11.48;56.50;101605.00;3511471;28;20043;-73
2021/09/30 23:22:23;;;;;;;11.80;7.65;;;;;;;11.46;56.55;101612.34;3511184;28;20131;-73
2021/09/30 23:24:04;;;;;;;13.95;8.23;;;;;;;11.43;56.55;101607.31;3510804;28;20105;-73
2021/09/30 23:25:46;;;;;;;;;;;;;;;11.54;56.43;101607.09;3511801;28;20054;-71
2021/09/30 23:27:27;;;;;;;14.90;8.75;;;;;;;11.44;56.70;101614.34;3511345;28;19920;-72
2021/09/30 23:29:08;;;;;;;14.18;8.18;;;;;;;11.41;56.54;101606.63;3510425;28;20131;-72
2021/09/30 23:30:49;;;;;;;12.60;8.93;;;;;;;11.37;56.59;101611.44;3510906;28;20117;-71
2021/09/30 23:32:31;;;;;;;19.08;9.93;;;;;;;11.37;56.71;101613.25;3496006;28;20110;-71
2021/09/30 23:34:12;;;;;;;13.35;8.68;;;;;;;11.37;56.98;101614.09;3508818;28;20036;-71
2021/09/30 23:35:53;;;;;;;14.20;8.90;;;;;;;11.38;56.99;101610.44;3510459;28;20146;-72
2021/09/30 23:37:34;;;;;;;13.18;9.30;;;;;;;11.38;56.97;101620.28;3510393;28;20069;-71
2021/09/30 23:39:15;;;;;;;14.60;8.90;;;;;;;11.38;57.22;101612.25;3511210;28;20044;-71
2021/09/30 23:40:56;;;;;;;14.67;8.33;;;;;;;11.44;57.33;101619.69;3510847;28;20138;-74
2021/09/30 23:42:36;;;;;;;11.45;8.13;;;;;;;11.46;57.23;101621.22;3510921;28;20036;-73
2021/09/30 23:44:17;;;;;;;14.05;9.85;;;;;;;11.48;56.97;101613.03;3496432;28;20407;-72
2021/09/30 23:45:58;;;;;;;15.25;9.25;;;;;;;11.52;56.73;101617.91;3508003;28;20052;-73
2021/09/30 23:47:40;;;;;;;13.65;9.77;;;;;;;11.55;56.57;101614.09;3510819;28;20044;-73
2021/09/30 23:49:21;;;;;;;13.07;9.30;;;;;;;11.56;56.37;101615.75;3510860;28;20410;-72
2021/09/30 23:51:01;;;;;;;14.20;8.50;;;;;;;11.58;56.52;101616.47;3510961;28;20093;-73
2021/09/30 23:52:42;;;;;;;13.95;8.52;;;;;;;11.58;56.70;101613.78;3510693;28;20050;-73
2021/09/30 23:54:22;;;;;;;14.20;9.85;;;;;;;11.57;56.76;101614.78;3510346;28;20185;-73
2021/09/30 23:56:03;;;;;;;13.70;8.77;;;;;;;11.61;56.81;101626.81;3510958;28;20040;-72
2021/09/30 23:57:44;;;;;;;15.05;8.95;;;;;;;11.63;57.03;101619.50;3510954;28;20047;-73
2021/09/30 23:59:25;;;;;;;13.80;8.52;;;;;;;11.63;57.04;101624.00;3510933;28;20085;-75
